This is the latest recevied weather packets stored in our database for station/object KO4FR. If no packets are shown the sender has not sent any weather packets the latest 10 day(s).
| Time | Temp. | Humidity | Pressure | Rain* | Wind** | Luminosity | Snow |
|---|---|---|---|---|---|---|---|
| 1777913694 | 23.33° C | 31% | 1015.8 hPa | 0 mm | - | - | - |
| 1777913394 | 22.78° C | 33% | 1015.7 hPa | 0 mm | - | - | - |
| 1777913094 | 22.78° C | 33% | 1015.7 hPa | 0 mm | - | - | - |
| 1777912794 | 22.78° C | 31% | 1015.8 hPa | 0 mm | - | - | - |
| 1777912495 | 22.22° C | 33% | 1015.9 hPa | 0 mm | - | - | - |
| 1777912194 | 22.22° C | 32% | 1016 hPa | 0 mm | - | - | - |
| 1777911894 | 22.78° C | 32% | 1016 hPa | 0 mm | - | - | - |
| 1777911594 | 22.22° C | 35% | 1016 hPa | 0 mm | - | - | - |
| 1777911294 | 22.22° C | 34% | 1016.2 hPa | 0 mm | - | - | - |
| 1777910994 | 22.22° C | 35% | 1016.2 hPa | 0 mm | - | - | - |
| 1777910694 | 22.22° C | 34% | 1016.3 hPa | 0 mm | - | - | - |
| 1777910394 | 22.22° C | 36% | 1016.3 hPa | 0 mm | - | - | - |
| 1777910094 | 21.67° C | 36% | 1016.4 hPa | 0 mm | - | - | - |
| 1777909794 | 21.67° C | 37% | 1016.5 hPa | 0 mm | - | - | - |
| 1777909493 | 21.67° C | 35% | 1016.6 hPa | 0 mm | - | - | - |
| 1777909194 | 21.11° C | 39% | 1016.5 hPa | 0 mm | - | - | - |
| 1777908894 | 21.11° C | 35% | 1016.5 hPa | 0 mm | - | - | - |
| 1777908594 | 21.11° C | 36% | 1016.6 hPa | 0 mm | - | - | - |
| 1777908293 | 21.11° C | 37% | 1016.5 hPa | 0 mm | - | - | - |
| 1777907994 | 20.56° C | 37% | 1016.7 hPa | 0 mm | - | - | - |
| 1777907694 | 20.56° C | 38% | 1016.6 hPa | 0 mm | - | - | - |
| 1777907394 | 20° C | 40% | 1016.7 hPa | 0 mm | - | - | - |
| 1777907094 | 20° C | 39% | 1016.8 hPa | 0 mm | - | - | - |
| 1777906793 | 20° C | 38% | 1016.7 hPa | 0 mm | - | - | - |
| 1777906493 | 19.44° C | 41% | 1016.7 hPa | 0 mm | - | - | - |
* Rain latest hour (hover to see other rain measurements)
** Current wind speed in m/s (hover to see current wind gust speed)